createdAt,value
2019-06-10T00:00:22.798Z,5.20
2019-06-10T00:02:52.450Z,3.83
2019-06-10T00:05:22.069Z,3.10
2019-06-10T00:07:52.167Z,3.50
2019-06-10T00:10:22.412Z,3.30
2019-06-10T00:12:55.194Z,5.30
2019-06-10T00:15:23.507Z,2.97
2019-06-10T00:18:07.246Z,2.33
2019-06-10T00:20:24.522Z,2.10
2019-06-10T00:22:54.656Z,2.53
2019-06-10T00:25:24.480Z,3.43
2019-06-10T00:27:54.044Z,4.60
2019-06-10T00:30:23.622Z,17.60
2019-06-10T00:32:53.433Z,9.60
2019-06-10T00:35:23.282Z,5.63
2019-06-10T00:37:52.913Z,4.13
2019-06-10T00:40:22.495Z,4.03
2019-06-10T00:42:52.358Z,3.63
2019-06-10T00:45:21.983Z,2.70
2019-06-10T00:48:04.411Z,4.67
2019-06-10T00:50:23.369Z,4.10
2019-06-10T00:52:52.914Z,5.20
2019-06-10T00:55:23.005Z,4.70
2019-06-10T00:57:53.193Z,5.60
2019-06-10T01:00:25.511Z,4.10
2019-06-10T01:02:54.052Z,3.00
2019-06-10T01:05:23.670Z,2.40
2019-06-10T01:07:53.289Z,2.40
2019-06-10T01:10:23.237Z,2.03
2019-06-10T01:12:53.112Z,2.10
2019-06-10T01:15:22.715Z,2.20
2019-06-10T01:17:52.310Z,2.10
2019-06-10T01:20:22.146Z,1.90
2019-06-10T01:22:51.989Z,2.30
2019-06-10T01:25:21.706Z,1.80
2019-06-10T01:27:51.603Z,2.93
2019-06-10T01:30:26.461Z,2.00
2019-06-10T01:32:52.726Z,2.03
2019-06-10T01:35:22.836Z,2.80
2019-06-10T01:37:52.429Z,10.00
2019-06-10T01:40:22.284Z,11.20
2019-06-10T01:42:52.403Z,11.80
2019-06-10T01:45:22.010Z,7.80
2019-06-10T01:47:51.610Z,5.43
2019-06-10T01:50:21.772Z,4.57
2019-06-10T01:52:51.727Z,5.13
2019-06-10T01:55:22.000Z,4.00
2019-06-10T01:57:51.918Z,3.33
2019-06-10T02:00:26.156Z,2.77
2019-06-10T02:02:56.033Z,2.83
2019-06-10T02:05:25.592Z,2.73
2019-06-10T02:07:55.175Z,2.93
2019-06-10T02:10:24.752Z,3.00
2019-06-10T02:12:54.629Z,2.90
2019-06-10T02:15:24.266Z,2.57
2019-06-10T02:17:53.795Z,2.57
2019-06-10T02:20:23.961Z,2.20
2019-06-10T02:22:53.576Z,2.47
2019-06-10T02:25:23.173Z,2.60
2019-06-10T02:27:52.755Z,2.23
2019-06-10T02:30:35.719Z,1.90
2019-06-10T02:32:53.564Z,2.43
2019-06-10T02:35:30.428Z,2.60
2019-06-10T02:37:54.454Z,2.60
2019-06-10T02:40:31.872Z,2.50
2019-06-10T02:42:56.879Z,2.40
2019-06-10T02:45:32.661Z,2.40
2019-06-10T02:47:57.796Z,2.50
2019-06-10T02:51:15.334Z,3.00
2019-06-10T02:53:45.095Z,2.47
2019-06-10T02:56:17.166Z,2.83
2019-06-10T02:58:46.009Z,2.63
2019-06-10T03:01:17.379Z,2.03
2019-06-10T03:03:49.737Z,2.77
2019-06-10T03:06:20.981Z,2.73
2019-06-10T03:08:49.546Z,2.30
2019-06-10T03:11:24.213Z,2.50
2019-06-10T03:13:53.032Z,2.63
2019-06-10T03:16:35.413Z,2.63
2019-06-10T03:19:05.029Z,1.83
2019-06-10T03:21:34.632Z,2.93
2019-06-10T03:24:04.289Z,2.23
2019-06-10T03:26:33.895Z,2.33
2019-06-10T03:29:03.515Z,2.77
2019-06-10T03:31:40.971Z,2.70
2019-06-10T03:34:05.455Z,2.60
2019-06-10T03:36:35.594Z,2.07
2019-06-10T03:39:07.161Z,2.67
2019-06-10T03:41:36.795Z,2.23
2019-06-10T03:44:06.403Z,2.50
2019-06-10T03:46:36.045Z,2.90
2019-06-10T03:49:05.734Z,2.73
2019-06-10T03:51:35.305Z,2.50
2019-06-10T03:54:04.905Z,2.33
2019-06-10T03:56:34.479Z,2.20
2019-06-10T03:59:04.088Z,1.93
2019-06-10T04:01:33.689Z,2.83
2019-06-10T04:04:03.530Z,2.37
2019-06-10T04:06:33.769Z,2.40
2019-06-10T04:09:04.157Z,2.40
2019-06-10T04:11:35.416Z,2.90
2019-06-10T04:14:05.043Z,2.70
2019-06-10T04:16:34.621Z,2.53
2019-06-10T04:19:04.276Z,2.00
2019-06-10T04:21:33.872Z,2.90
2019-06-10T04:24:03.449Z,2.40
2019-06-10T04:26:33.072Z,2.93
2019-06-10T04:29:02.730Z,2.77
2019-06-10T04:31:33.029Z,2.60
2019-06-10T04:34:03.366Z,2.60
2019-06-10T04:36:33.554Z,2.87
2019-06-10T04:39:03.399Z,2.47
2019-06-10T04:41:33.031Z,3.37
2019-06-10T04:44:02.957Z,3.20
2019-06-10T04:46:32.689Z,2.90
2019-06-10T04:49:02.743Z,2.97
2019-06-10T04:51:33.058Z,2.77
2019-06-10T04:54:03.481Z,2.80
2019-06-10T04:56:33.565Z,3.27
2019-06-10T04:59:03.683Z,2.97
2019-06-10T05:01:33.659Z,2.67
2019-06-10T05:04:03.501Z,2.90
2019-06-10T05:06:33.106Z,3.10
2019-06-10T05:09:04.243Z,3.40
2019-06-10T05:11:34.438Z,3.10
2019-06-10T05:14:04.393Z,2.60
2019-06-10T05:16:35.815Z,3.40
2019-06-10T05:19:05.477Z,3.27
2019-06-10T05:21:35.037Z,2.87
2019-06-10T05:24:04.876Z,3.00
2019-06-10T05:26:34.723Z,2.87
2019-06-10T05:29:04.964Z,3.27
2019-06-10T05:31:35.218Z,3.27
2019-06-10T05:34:04.907Z,2.97
2019-06-10T05:36:34.916Z,2.80
2019-06-10T05:39:05.880Z,2.93
2019-06-10T05:41:35.716Z,3.30
2019-06-10T05:44:05.259Z,3.17
2019-06-10T05:46:35.341Z,3.00
2019-06-10T05:49:05.126Z,3.10
2019-06-10T05:51:35.408Z,2.70
2019-06-10T05:54:05.148Z,2.90
2019-06-10T05:56:35.675Z,2.57
2019-06-10T05:59:05.423Z,2.70
2019-06-10T06:01:38.009Z,2.93
2019-06-10T06:04:06.202Z,2.97
2019-06-10T06:06:37.414Z,2.60
2019-06-10T06:09:08.520Z,2.73
2019-06-10T06:11:38.621Z,2.70
2019-06-10T06:14:08.460Z,2.50
2019-06-10T06:16:38.263Z,3.10
2019-06-10T06:19:08.439Z,3.40
2019-06-10T06:21:42.759Z,2.80
2019-06-10T06:24:09.541Z,2.70
2019-06-10T06:26:39.789Z,2.93
2019-06-10T06:29:09.431Z,2.67
2019-06-10T06:31:39.375Z,2.60
2019-06-10T06:34:09.245Z,3.00
2019-06-10T06:36:39.076Z,3.10
2019-06-10T06:39:09.835Z,3.10
2019-06-10T06:41:42.451Z,3.50
2019-06-10T06:44:12.925Z,2.63
2019-06-10T06:46:43.459Z,3.53
2019-06-10T06:49:13.103Z,2.83
2019-06-10T06:51:54.626Z,3.07
2019-06-10T06:54:14.087Z,3.03
2019-06-10T06:56:43.939Z,2.73
2019-06-10T06:59:13.585Z,3.30
2019-06-10T07:01:44.192Z,3.03
2019-06-10T07:04:14.187Z,3.07
2019-06-10T07:06:44.082Z,2.70
2019-06-10T07:09:13.887Z,2.57
2019-06-10T07:11:45.272Z,2.70
2019-06-10T07:14:15.187Z,3.20
2019-06-10T07:16:46.509Z,2.63
2019-06-10T07:19:16.350Z,3.03
2019-06-10T07:22:07.437Z,3.27
2019-06-10T07:24:17.367Z,2.90
2019-06-10T07:26:54.065Z,3.40
2019-06-10T07:29:18.446Z,2.40
2019-06-10T07:31:50.439Z,2.63
2019-06-10T07:34:19.265Z,2.40
2019-06-10T07:36:48.829Z,3.27
2019-06-10T07:39:18.706Z,2.97
2019-06-10T07:41:48.849Z,2.60
2019-06-10T07:44:18.469Z,2.70
2019-06-10T07:46:48.285Z,3.07
2019-06-10T07:49:18.174Z,2.73
2019-06-10T07:51:47.993Z,3.17
2019-06-10T07:54:17.797Z,2.80
2019-06-10T07:56:50.518Z,3.30
2019-06-10T07:59:18.869Z,3.13
2019-06-10T08:01:51.736Z,3.17
2019-06-10T08:04:19.715Z,3.27
2019-06-10T08:06:50.664Z,3.23
2019-06-10T08:09:22.633Z,2.80
2019-06-10T08:11:53.198Z,3.50
2019-06-10T08:14:22.935Z,3.23
2019-06-10T08:16:53.137Z,3.20
2019-06-10T08:19:34.331Z,2.90
2019-06-10T08:21:54.539Z,3.90
2019-06-10T08:24:24.220Z,3.13
2019-06-10T08:26:53.994Z,2.83
2019-06-10T08:29:24.073Z,3.10
2019-06-10T08:31:53.935Z,2.97
2019-06-10T08:34:23.505Z,2.60
2019-06-10T08:36:54.460Z,3.93
2019-06-10T08:39:24.288Z,3.53
2019-06-10T08:41:54.126Z,3.00
2019-06-10T08:44:23.988Z,3.47
2019-06-10T08:46:53.563Z,3.37
2019-06-10T08:49:24.030Z,4.03
2019-06-10T08:51:54.002Z,2.97
2019-06-10T08:54:23.703Z,3.20
2019-06-10T08:56:54.124Z,3.27
2019-06-10T08:59:23.841Z,3.40
2019-06-10T09:01:56.769Z,3.80
2019-06-10T09:04:25.563Z,3.37
2019-06-10T09:06:55.435Z,3.40
2019-06-10T09:09:24.971Z,3.20
2019-06-10T09:11:54.954Z,3.30
2019-06-10T09:14:24.534Z,3.30
2019-06-10T09:16:54.608Z,3.40
2019-06-10T09:19:24.663Z,3.60
2019-06-10T09:21:56.364Z,2.97
2019-06-10T09:24:26.223Z,3.40
2019-06-10T09:26:55.800Z,2.60
2019-06-10T09:29:25.698Z,3.20
2019-06-10T09:31:55.885Z,3.50
2019-06-10T09:34:26.279Z,3.80
2019-06-10T09:36:56.998Z,2.60
2019-06-10T09:39:26.912Z,3.10
2019-06-10T09:42:02.886Z,3.20
2019-06-10T09:44:28.046Z,3.40
2019-06-10T09:47:01.040Z,4.00
2019-06-10T09:49:33.019Z,3.40
2019-06-10T09:52:03.467Z,4.17
2019-06-10T09:54:33.684Z,3.33
2019-06-10T09:57:03.748Z,3.83
2019-06-10T09:59:33.699Z,3.50
2019-06-10T10:02:06.281Z,3.43
2019-06-10T10:04:37.472Z,3.30
2019-06-10T10:07:07.752Z,3.63
2019-06-10T10:09:37.971Z,3.20
2019-06-10T10:12:07.798Z,3.50
2019-06-10T10:14:37.363Z,4.00
2019-06-10T10:17:07.007Z,3.43
2019-06-10T10:19:36.790Z,3.57
2019-06-10T10:22:06.955Z,2.90
2019-06-10T10:24:36.505Z,4.23
2019-06-10T10:27:09.404Z,4.13
2019-06-10T10:29:38.627Z,3.20
2019-06-10T10:32:08.223Z,4.00
2019-06-10T10:34:37.755Z,3.97
2019-06-10T10:37:07.321Z,3.63
2019-06-10T10:39:36.918Z,3.10
2019-06-10T10:42:06.751Z,3.10
2019-06-10T10:44:36.377Z,3.30
2019-06-10T10:47:05.932Z,3.50
2019-06-10T10:49:35.893Z,4.40
2019-06-10T10:52:06.331Z,3.50
2019-06-10T10:54:36.898Z,3.90
2019-06-10T10:57:06.781Z,3.87
2019-06-10T10:59:36.599Z,4.10
2019-06-10T11:02:06.473Z,3.50
2019-06-10T11:04:38.303Z,3.20
2019-06-10T11:07:07.871Z,3.93
2019-06-10T11:09:37.507Z,5.13
2019-06-10T11:12:07.425Z,3.83
2019-06-10T11:14:37.370Z,3.30
2019-06-10T11:17:10.001Z,3.30
2019-06-10T11:19:39.586Z,3.83
2019-06-10T11:22:09.178Z,3.53
2019-06-10T11:24:42.287Z,4.37
2019-06-10T11:27:12.599Z,3.70
2019-06-10T11:29:42.240Z,4.40
2019-06-10T11:32:11.954Z,3.67
2019-06-10T11:34:42.888Z,3.10
2019-06-10T11:37:12.726Z,3.60
2019-06-10T11:39:42.710Z,6.90
2019-06-10T11:42:13.296Z,5.30
2019-06-10T11:44:42.950Z,3.33
2019-06-10T11:47:13.239Z,3.63
2019-06-10T11:49:43.580Z,3.57
2019-06-10T11:52:13.467Z,3.47
2019-06-10T11:54:55.604Z,4.27
2019-06-10T11:57:14.393Z,3.87
2019-06-10T11:59:44.240Z,4.00
2019-06-10T12:02:14.028Z,4.10
2019-06-10T12:04:43.598Z,4.00
2019-06-10T12:07:13.220Z,4.00
2019-06-10T12:09:42.799Z,3.63
2019-06-10T12:12:13.493Z,4.23
2019-06-10T12:14:43.325Z,3.93
2019-06-10T12:17:24.598Z,4.47
2019-06-10T12:19:44.864Z,3.70
2019-06-10T12:22:14.377Z,4.00
2019-06-10T12:24:46.227Z,4.10
2019-06-10T12:27:16.323Z,4.10
2019-06-10T12:29:45.921Z,3.23
2019-06-10T12:32:15.507Z,3.77
2019-06-10T12:34:46.327Z,3.97
2019-06-10T12:37:16.702Z,3.67
2019-06-10T12:39:46.346Z,3.90
2019-06-10T12:42:16.244Z,3.97
2019-06-10T12:44:46.092Z,3.60
2019-06-10T12:47:15.958Z,4.30
2019-06-10T12:49:45.857Z,4.13
2019-06-10T12:52:15.507Z,4.37
2019-06-10T12:54:45.155Z,3.80
2019-06-10T12:57:16.453Z,3.67
2019-06-10T12:59:45.932Z,3.43
2019-06-10T13:02:23.134Z,3.50
2019-06-10T13:04:47.776Z,3.83
2019-06-10T13:07:18.824Z,3.70
2019-06-10T13:09:48.376Z,3.93
2019-06-10T13:12:18.239Z,3.83
2019-06-10T13:14:47.795Z,3.00
2019-06-10T13:17:18.071Z,4.67
2019-06-10T13:19:49.212Z,4.30
2019-06-10T13:22:19.203Z,3.90
2019-06-10T13:24:48.780Z,3.40
2019-06-10T13:27:18.408Z,3.93
2019-06-10T13:29:48.250Z,3.50
2019-06-10T13:32:17.827Z,5.20
2019-06-10T13:34:47.423Z,4.10
2019-06-10T13:37:17.290Z,3.57
2019-06-10T13:39:47.377Z,3.60
2019-06-10T13:42:17.187Z,3.70
2019-06-10T13:44:52.173Z,3.77
2019-06-10T13:47:24.918Z,3.37
2019-06-10T13:49:54.980Z,3.50
2019-06-10T13:52:24.563Z,3.93
2019-06-10T13:54:54.154Z,3.80
2019-06-10T13:57:23.903Z,4.00
2019-06-10T13:59:53.454Z,4.20
2019-06-10T14:02:25.018Z,3.70
2019-06-10T14:04:55.055Z,3.57
2019-06-10T14:07:24.926Z,3.70
2019-06-10T14:09:54.505Z,3.47
2019-06-10T14:12:24.669Z,4.07
2019-06-10T14:14:54.256Z,3.77
2019-06-10T14:17:24.122Z,3.97
2019-06-10T14:19:54.280Z,3.70
2019-06-10T14:22:24.011Z,3.50
2019-06-10T14:24:54.051Z,3.87
2019-06-10T14:27:24.597Z,3.00
2019-06-10T14:29:55.646Z,3.53
2019-06-10T14:32:25.579Z,3.50
2019-06-10T14:34:55.185Z,4.10
2019-06-10T14:37:36.155Z,3.70
2019-06-10T14:39:56.345Z,4.20
2019-06-10T14:42:26.139Z,3.77
2019-06-10T14:44:55.656Z,4.10
2019-06-10T14:47:25.329Z,3.80
2019-06-10T14:49:55.198Z,3.70
2019-06-10T14:52:25.602Z,3.87
2019-06-10T14:54:57.494Z,3.73
2019-06-10T14:57:26.778Z,4.37
2019-06-10T14:59:56.385Z,4.13
2019-06-10T15:02:25.944Z,4.20
2019-06-10T15:04:56.046Z,4.30
2019-06-10T15:07:25.595Z,3.50
2019-06-10T15:09:55.209Z,3.97
2019-06-10T15:12:24.738Z,3.80
2019-06-10T15:14:54.286Z,3.60
2019-06-10T15:17:24.447Z,3.60
2019-06-10T15:19:54.029Z,4.00
2019-06-10T15:22:23.802Z,4.77
2019-06-10T15:24:53.753Z,4.03
2019-06-10T15:27:30.375Z,4.93
2019-06-10T15:29:55.105Z,4.43
2019-06-10T15:32:33.871Z,4.17
2019-06-10T15:34:55.917Z,3.97
2019-06-10T15:37:28.694Z,4.30
2019-06-10T15:39:56.749Z,4.70
2019-06-10T15:42:26.556Z,4.40
2019-06-10T15:44:56.698Z,3.97
2019-06-10T15:47:26.791Z,4.87
2019-06-10T15:49:56.845Z,5.40
2019-06-10T15:52:26.475Z,4.97
2019-06-10T15:54:56.040Z,4.20
2019-06-10T15:57:38.949Z,4.40
2019-06-10T15:59:57.427Z,4.90
2019-06-10T16:02:27.213Z,5.10
2019-06-10T16:04:57.108Z,4.70
2019-06-10T16:07:26.670Z,5.00
2019-06-10T16:09:56.783Z,4.40
2019-06-10T16:12:26.993Z,4.90
2019-06-10T16:14:56.888Z,4.50
2019-06-10T16:17:29.331Z,5.37
2019-06-10T16:19:57.671Z,5.33
2019-06-10T16:22:27.318Z,5.47
2019-06-10T16:24:57.228Z,6.03
2019-06-10T16:27:43.508Z,4.67
2019-06-10T16:29:58.271Z,5.37
2019-06-10T16:32:27.887Z,5.20
2019-06-10T16:34:57.517Z,4.40
2019-06-10T16:37:27.332Z,4.17
2019-06-10T16:39:57.215Z,5.40
2019-06-10T16:42:27.584Z,4.50
2019-06-10T16:44:57.328Z,4.03
2019-06-10T16:47:27.415Z,5.50
2019-06-10T16:49:57.050Z,5.20
2019-06-10T16:52:27.524Z,5.13
2019-06-10T16:54:57.326Z,4.67
2019-06-10T16:57:27.233Z,4.40
2019-06-10T16:59:57.263Z,4.60
2019-06-10T17:02:26.975Z,5.00
2019-06-10T17:04:58.521Z,4.30
2019-06-10T17:07:29.214Z,4.17
2019-06-10T17:09:58.906Z,4.47
2019-06-10T17:12:28.456Z,3.97
2019-06-10T17:14:58.500Z,3.90
2019-06-10T17:17:28.652Z,4.63
2019-06-10T17:19:59.648Z,3.97
2019-06-10T17:22:30.935Z,3.13
2019-06-10T17:25:00.762Z,4.23
2019-06-10T17:27:32.637Z,3.93
2019-06-10T17:30:02.876Z,4.27
2019-06-10T17:32:32.956Z,3.93
2019-06-10T17:35:02.620Z,3.70
2019-06-10T17:37:33.770Z,3.53
2019-06-10T17:40:03.946Z,4.10
2019-06-10T17:42:38.209Z,4.87
2019-06-10T17:45:05.703Z,5.07
2019-06-10T17:47:35.508Z,4.07
2019-06-10T17:50:05.611Z,3.87
2019-06-10T17:52:38.565Z,3.27
2019-06-10T17:55:06.749Z,3.77
2019-06-10T17:57:36.529Z,3.70
2019-06-10T18:00:12.204Z,3.57
2019-06-10T18:02:39.750Z,3.50
2019-06-10T18:05:09.816Z,3.10
2019-06-10T18:07:39.598Z,4.17
2019-06-10T18:10:09.642Z,3.50
2019-06-10T18:12:39.211Z,3.83
2019-06-10T18:15:09.175Z,3.10
2019-06-10T18:17:49.006Z,4.33
2019-06-10T18:20:18.719Z,3.50
2019-06-10T18:22:49.047Z,4.30
2019-06-10T18:25:18.717Z,3.90
2019-06-10T18:27:48.285Z,3.83
2019-06-10T18:30:18.519Z,3.73
2019-06-10T18:32:48.659Z,4.10
2019-06-10T18:35:18.355Z,4.03
2019-06-10T18:37:48.020Z,3.77
2019-06-10T18:40:17.954Z,4.00
2019-06-10T18:42:48.111Z,4.00
2019-06-10T18:45:17.805Z,3.50
2019-06-10T18:47:47.324Z,3.53
2019-06-10T18:50:18.340Z,3.47
2019-06-10T18:52:48.264Z,3.87
2019-06-10T18:55:18.760Z,4.40
2019-06-10T18:57:48.586Z,3.43
2019-06-10T19:00:18.270Z,3.67
2019-06-10T19:02:48.074Z,4.03
2019-06-10T19:05:17.890Z,4.10
2019-06-10T19:07:47.714Z,3.60
2019-06-10T19:10:18.446Z,3.90
2019-06-10T19:12:48.020Z,3.80
2019-06-10T19:15:17.867Z,4.30
2019-06-10T19:17:47.424Z,4.00
2019-06-10T19:20:17.393Z,4.10
2019-06-10T19:22:47.231Z,4.93
2019-06-10T19:25:17.363Z,5.27
2019-06-10T19:27:47.458Z,5.33
2019-06-10T19:30:17.733Z,5.03
2019-06-10T19:32:47.310Z,3.77
2019-06-10T19:35:18.120Z,3.70
2019-06-10T19:37:48.339Z,4.27
2019-06-10T19:40:18.180Z,4.70
2019-06-10T19:42:47.767Z,4.63
2019-06-10T19:45:22.748Z,5.13
2019-06-10T19:47:52.667Z,5.13
2019-06-10T19:50:22.522Z,4.63
2019-06-10T19:52:52.098Z,5.13
2019-06-10T19:55:23.325Z,3.97
2019-06-10T19:57:53.063Z,3.83
2019-06-10T20:00:23.615Z,3.60
2019-06-10T20:02:53.234Z,3.77
2019-06-10T20:05:23.264Z,3.80
2019-06-10T20:07:53.380Z,3.50
2019-06-10T20:10:23.169Z,3.93
2019-06-10T20:12:53.725Z,3.60
2019-06-10T20:15:24.274Z,4.33
2019-06-10T20:17:53.978Z,5.30
2019-06-10T20:20:23.907Z,5.97
2019-06-10T20:22:57.318Z,5.10
2019-06-10T20:25:26.053Z,5.23
2019-06-10T20:27:55.666Z,4.73
2019-06-10T20:30:28.846Z,3.70
2019-06-10T20:32:56.915Z,4.23
2019-06-10T20:35:26.580Z,4.63
2019-06-10T20:37:56.238Z,4.60
2019-06-10T20:40:25.796Z,4.10
2019-06-10T20:42:55.647Z,4.77
2019-06-10T20:45:25.545Z,4.00
2019-06-10T20:47:55.189Z,3.90
2019-06-10T20:50:25.016Z,4.17
2019-06-10T20:52:54.639Z,4.30
2019-06-10T20:55:39.828Z,3.70
2019-06-10T20:58:03.518Z,4.40
2019-06-10T21:00:35.969Z,4.60
2019-06-10T21:03:06.730Z,4.50
2019-06-10T21:05:36.615Z,4.33
2019-06-10T21:08:06.706Z,4.13
2019-06-10T21:10:37.295Z,4.60
2019-06-10T21:13:07.454Z,4.50
2019-06-10T21:15:37.389Z,4.47
2019-06-10T21:18:07.746Z,4.00
2019-06-10T21:20:37.440Z,4.77
2019-06-10T21:23:07.060Z,4.30
2019-06-10T21:25:36.926Z,3.90
2019-06-10T21:28:06.842Z,3.70
2019-06-10T21:30:41.763Z,4.37
2019-06-10T21:33:08.301Z,4.87
2019-06-10T21:35:38.142Z,4.57
2019-06-10T21:38:07.859Z,5.17
2019-06-10T21:40:37.511Z,5.10
2019-06-10T21:43:07.120Z,4.93
2019-06-10T21:45:36.760Z,4.20
2019-06-10T21:48:06.732Z,4.80
2019-06-10T21:50:36.362Z,5.43
2019-06-10T21:53:06.205Z,4.70
2019-06-10T21:55:36.090Z,5.30
2019-06-10T21:58:05.755Z,4.83
2019-06-10T22:00:52.796Z,4.60
2019-06-10T22:03:12.787Z,4.80
2019-06-10T22:05:44.137Z,5.73
2019-06-10T22:08:14.325Z,4.00
2019-06-10T22:10:44.293Z,4.57
2019-06-10T22:13:13.972Z,4.30
2019-06-10T22:15:44.249Z,5.60
2019-06-10T22:18:14.375Z,5.47
2019-06-10T22:20:44.821Z,5.70
2019-06-10T22:23:14.714Z,4.50
2019-06-10T22:25:44.798Z,5.53
2019-06-10T22:28:15.268Z,4.43
2019-06-10T22:30:45.150Z,4.93
2019-06-10T22:33:15.009Z,5.30
2019-06-10T22:35:45.452Z,5.00
2019-06-10T22:38:15.070Z,4.83
2019-06-10T22:40:45.000Z,5.30
2019-06-10T22:43:14.840Z,5.40
2019-06-10T22:45:44.493Z,5.00
2019-06-10T22:48:14.324Z,5.07
2019-06-10T22:50:44.738Z,5.77
2019-06-10T22:53:14.569Z,5.77
2019-06-10T22:55:44.134Z,5.50
2019-06-10T22:58:14.501Z,5.67
2019-06-10T23:00:44.413Z,6.27
2019-06-10T23:03:14.010Z,5.60
2019-06-10T23:05:43.857Z,5.87
2019-06-10T23:08:13.739Z,5.40
2019-06-10T23:10:43.535Z,5.37
2019-06-10T23:13:16.366Z,4.77
2019-06-10T23:15:45.492Z,5.00
2019-06-10T23:18:15.432Z,5.70
2019-06-10T23:20:45.260Z,5.13
2019-06-10T23:23:15.400Z,4.87
2019-06-10T23:25:44.927Z,4.87
2019-06-10T23:28:14.794Z,5.40
2019-06-10T23:30:44.355Z,4.67
2019-06-10T23:33:14.700Z,4.70
2019-06-10T23:35:47.494Z,4.90
2019-06-10T23:38:15.800Z,5.57
2019-06-10T23:40:45.403Z,5.30
2019-06-10T23:43:15.000Z,5.60
2019-06-10T23:45:44.813Z,5.30
2019-06-10T23:48:14.706Z,5.93
2019-06-10T23:50:44.551Z,6.17
2019-06-10T23:53:14.337Z,7.57
2019-06-10T23:55:43.971Z,7.43
2019-06-10T23:58:13.541Z,8.97
